EGCKEGNR

Guest
Details From EGCK - Caernarfon
To EGNR - Hawarden
Flight Number -
Tags Routegen
Created
Modified
Stats Distance 49 nm / 91 km
Max Altitude 0 ft / 0 m
Waypoints 2
Social Downloads 8
Likes 0
Share VATSIM

Download

Looking for another format? Having issues loading an existing format? Contact us
Advertisement - Login to hide

Notes

None

Route

EGCK EGNR

ID Type Via Altitude (ft/m) Position (lat/lon) Dist (leg/tot) Name
O EGCK APT - 0 / 0 53.09950 / -4.34238 - / 0 nm Caernarfon
O EGNR APT - 0 / 0 53.17122 / -2.98764 49 / 49 nm

Altitude Profile

Advertisement - Login to hide

EGCK

Details ICAO EGCK
Name Caernarfon
Region United Kingdom
Timezone Europe/London (UTC+1.0)
Stats Elevation 13 ft / 4 m (AMSL)
Location 53.103100° -4.338720°
Runways 2
Magnetic Variation 2.074° W

METAR

EGCK 221720Z AUTO 28010KT 9999 FEW026/// 12/06 Q1039

Decode

TAF

Not found

Departure Runways

ID Width Length Bearing (true/mag) Surface Threshold Overrun Markings Lighting
02 75 ft / 23 m 3,500 ft / 1,067 m 13.18° / 15.25° ASPHALT 253 ft / 77 m 0 ft / 0 m VISUAL CENTERLINE EDGE THRESHOLD
07 75 ft / 23 m 2,995 ft / 913 m 70.77° / 72.85° ASPHALT 151 ft / 46 m 0 ft / 0 m VISUAL CENTERLINE EDGE THRESHOLD
20 75 ft / 23 m 3,500 ft / 1,067 m 193.18° / 195.26° ASPHALT 0 ft / 0 m 0 ft / 0 m VISUAL CENTERLINE EDGE THRESHOLD
25 75 ft / 23 m 2,995 ft / 913 m 250.78° / 252.86° ASPHALT 266 ft / 81 m 0 ft / 0 m VISUAL CENTERLINE EDGE THRESHOLD

EGNR

Details ICAO EGNR (CEG)
Name Chester Hawarden
Region United Kingdom
Timezone Europe/London (UTC+1.0)
Stats Elevation 42 ft / 13 m (AMSL)
Location 53.178100° -2.977650°
Runways 1
Magnetic Variation 1.565° W

METAR

EGNR 221720Z 29007KT 9999 FEW017 10/05 Q1038

Decode

TAF

Not found

Destination Runways

ID Width Length Bearing (true/mag) Surface Threshold Overrun Markings Lighting
04 148 ft / 45 m 6,676 ft / 2,035 m 40.93° / 42.50° ASPHALT 984 ft / 300 m 0 ft / 0 m UK-PREC-APP EDGE THRESHOLD MALS
22 148 ft / 45 m 6,676 ft / 2,035 m 220.95° / 222.52° ASPHALT 974 ft / 297 m 0 ft / 0 m UK-PREC-APP EDGE THRESHOLD MALS

Approach Navaids

Runway Type Ident Frequency Range Bearing (true/mag) Slope Elevation
04 LOC-ILS IHWD 110.35 MHz 18 nm / 33 km 40.95° / 42.52 ° - 43 ft / 13 m (AMSL)
04 DME IHWD 110.35 MHz 18 nm / 33 km - - 45 ft / 14 m (AMSL)
04 GS IHWD 110.35 MHz 10 nm / 19 km 40.95° / 42.52 ° 3.50° 43 ft / 13 m (AMSL)
22 GS IHDN 110.35 MHz 10 nm / 19 km 220.95° / 222.52 ° 3.00° 43 ft / 13 m (AMSL)
22 DME IHDN 110.35 MHz 18 nm / 33 km - - 17 ft / 5 m (AMSL)
22 LOC-ILS IHDN 110.35 MHz 18 nm / 33 km 220.95° / 222.52 ° - 43 ft / 13 m (AMSL)

Popular Alternatives